Time;durP1;ratioP1;P1;durP2;ratioP2;P2;SDS_P1;SDS_P2;PMS_P1;PMS_P2;Temp;Humidity;BMP_temperature;BMP_pressure;BME280_temperature;BME280_humidity;BME280_pressure;Samples;Min_cycle;Max_cycle;Signal;HPM_P1;HPM_P2
2023/06/19 00:00:12;;;;;;;10.20;6.07;;;20.60;64.20;;;;;;4999300;28;20136;-66
2023/06/19 00:02:41;;;;;;;11.10;6.20;;;20.60;64.60;;;;;;5008897;28;20057;-65
2023/06/19 00:05:07;;;;;;;12.00;5.95;;;20.60;64.00;;;;;;5006445;28;20026;-64
2023/06/19 00:07:36;;;;;;;8.25;6.45;;;20.60;64.60;;;;;;5002819;28;20374;-64
2023/06/19 00:10:02;;;;;;;7.65;5.88;;;20.60;65.10;;;;;;5008709;28;20338;-64
2023/06/19 00:12:27;;;;;;;8.45;6.13;;;20.50;65.10;;;;;;5003604;28;20271;-65
2023/06/19 00:14:53;;;;;;;9.60;6.20;;;20.60;64.60;;;;;;5007446;28;20124;-67
2023/06/19 00:17:18;;;;;;;9.50;6.60;;;20.50;64.90;;;;;;5005605;28;20033;-65
2023/06/19 00:19:44;;;;;;;8.90;6.50;;;20.50;64.50;;;;;;5005252;28;20021;-64
2023/06/19 00:22:09;;;;;;;8.70;6.20;;;20.50;64.90;;;;;;5017759;28;20105;-64
2023/06/19 00:24:35;;;;;;;9.35;6.10;;;20.50;64.70;;;;;;5006479;28;20025;-65
2023/06/19 00:27:02;;;;;;;7.47;6.00;;;20.50;63.90;;;;;;5006378;28;20041;-65
2023/06/19 00:29:28;;;;;;;9.25;6.35;;;20.50;64.60;;;;;;5018136;28;20048;-65
2023/06/19 00:31:53;;;;;;;8.73;5.88;;;20.50;65.70;;;;;;5014590;28;20025;-65
2023/06/19 00:34:19;;;;;;;11.20;5.82;;;20.40;66.40;;;;;;5017560;28;20474;-64
2023/06/19 00:36:44;;;;;;;10.07;6.57;;;20.20;68.90;;;;;;5006665;28;20097;-66
2023/06/19 00:39:10;;;;;;;8.85;6.38;;;20.00;68.80;;;;;;5004525;28;20037;-66
2023/06/19 00:41:37;;;;;;;8.20;6.82;;;19.90;71.30;;;;;;5015274;28;20022;-64
2023/06/19 00:44:02;;;;;;;9.55;7.22;;;19.70;70.50;;;;;;5002100;28;20365;-64
2023/06/19 00:46:28;;;;;;;8.38;6.10;;;19.70;70.50;;;;;;5004075;28;20084;-64
2023/06/19 00:48:54;;;;;;;11.35;6.60;;;19.60;70.50;;;;;;5007168;28;20432;-64
2023/06/19 00:51:20;;;;;;;10.25;6.88;;;19.60;70.30;;;;;;5000042;28;20041;-64
2023/06/19 00:53:45;;;;;;;10.10;6.40;;;19.60;70.90;;;;;;5008941;28;20117;-64
2023/06/19 00:56:11;;;;;;;10.98;6.90;;;19.70;69.70;;;;;;5000652;28;20030;-65
2023/06/19 00:58:37;;;;;;;10.98;7.03;;;19.70;69.10;;;;;;5006136;28;20022;-64
2023/06/19 01:01:03;;;;;;;10.65;7.20;;;19.70;70.30;;;;;;5004941;28;20034;-65
2023/06/19 01:03:28;;;;;;;10.23;7.00;;;19.80;69.60;;;;;;5009154;28;20427;-64
2023/06/19 01:05:56;;;;;;;8.57;6.30;;;19.80;68.80;;;;;;5005979;28;20117;-64
2023/06/19 01:08:40;;;;;;;8.48;6.32;;;19.80;68.00;;;;;;5000157;28;20065;-68
2023/06/19 01:11:07;;;;;;;7.45;6.65;;;19.80;69.00;;;;;;5001327;28;20312;-66
2023/06/19 01:13:49;;;;;;;10.30;6.35;;;19.90;67.60;;;;;;5005979;28;20034;-64
2023/06/19 01:16:15;;;;;;;10.35;6.10;;;20.00;67.00;;;;;;5003130;28;20430;-64
2023/06/19 01:18:42;;;;;;;9.98;6.05;;;19.90;66.10;;;;;;5002293;28;20049;-64
2023/06/19 01:21:19;;;;;;;7.78;6.38;;;20.00;66.00;;;;;;4999426;28;20017;-64
2023/06/19 01:23:45;;;;;;;6.72;5.53;;;20.00;66.00;;;;;;5003076;28;20036;-65
2023/06/19 01:26:11;;;;;;;8.95;6.25;;;20.00;65.50;;;;;;5003648;28;20100;-65
2023/06/19 01:28:40;;;;;;;9.23;6.28;;;20.10;66.30;;;;;;5007607;28;20132;-65
2023/06/19 01:31:18;;;;;;;7.32;6.15;;;20.20;64.20;;;;;;5006230;28;20037;-65
2023/06/19 01:33:45;;;;;;;9.60;6.20;;;20.30;64.20;;;;;;5011568;28;20022;-64
2023/06/19 01:36:11;;;;;;;9.38;6.70;;;20.30;63.30;;;;;;5007662;28;20062;-65
2023/06/19 01:38:37;;;;;;;9.05;6.35;;;20.40;62.80;;;;;;5006225;28;20101;-64
2023/06/19 01:41:05;;;;;;;8.57;6.30;;;20.40;63.00;;;;;;5012605;28;20292;-66
2023/06/19 01:43:31;;;;;;;8.05;6.03;;;20.50;62.20;;;;;;5010082;28;20026;-66
2023/06/19 01:45:57;;;;;;;9.60;6.40;;;20.40;63.00;;;;;;5005462;28;20022;-67
2023/06/19 01:48:23;;;;;;;8.45;6.35;;;20.40;62.20;;;;;;5006441;28;20145;-65
2023/06/19 01:50:49;;;;;;;10.02;6.32;;;20.40;62.50;;;;;;5012239;28;20077;-64
2023/06/19 01:53:15;;;;;;;7.38;6.43;;;20.40;61.70;;;;;;5006522;28;20461;-64
2023/06/19 01:55:41;;;;;;;9.63;6.70;;;20.50;60.70;;;;;;5008541;28;20030;-64
2023/06/19 01:58:07;;;;;;;8.35;6.00;;;20.50;60.60;;;;;;5008797;28;20030;-65
2023/06/19 02:00:35;;;;;;;9.23;6.28;;;20.50;61.30;;;;;;5007452;28;20104;-64
2023/06/19 02:03:01;;;;;;;8.88;6.45;;;20.50;60.90;;;;;;5018272;28;20041;-65
2023/06/19 02:05:26;;;;;;;8.95;6.10;;;20.50;60.40;;;;;;5013945;28;20311;-65
2023/06/19 02:07:51;;;;;;;7.95;6.30;;;20.50;60.60;;;;;;5019260;28;20442;-65
2023/06/19 02:10:17;;;;;;;8.82;6.50;;;20.50;60.50;;;;;;5021609;28;20022;-65
2023/06/19 02:12:42;;;;;;;10.85;6.63;;;20.50;61.40;;;;;;5007432;28;20510;-65
2023/06/19 02:15:08;;;;;;;10.27;7.10;;;20.40;61.50;;;;;;5007340;28;20051;-66
2023/06/19 02:17:34;;;;;;;8.05;6.22;;;20.50;61.40;;;;;;5014177;28;20029;-65
2023/06/19 02:19:59;;;;;;;8.25;6.70;;;20.50;61.40;;;;;;5012967;28;20045;-65
2023/06/19 02:22:25;;;;;;;10.43;6.57;;;20.40;61.00;;;;;;5004894;28;20065;-64
2023/06/19 02:24:50;;;;;;;8.43;6.57;;;20.50;61.20;;;;;;5008032;28;20415;-65
2023/06/19 02:27:16;;;;;;;7.70;6.45;;;20.50;60.70;;;;;;5007835;28;20057;-65
2023/06/19 02:29:41;;;;;;;8.00;6.30;;;20.50;61.60;;;;;;5013131;28;20103;-66
2023/06/19 02:32:07;;;;;;;9.07;6.90;;;20.40;62.00;;;;;;5010342;28;20383;-65
2023/06/19 02:34:33;;;;;;;9.05;6.18;;;20.40;61.20;;;;;;5016918;28;20032;-66
2023/06/19 02:36:59;;;;;;;8.20;6.38;;;20.40;61.20;;;;;;5018066;28;20026;-66
2023/06/19 02:39:24;;;;;;;9.07;6.75;;;20.50;61.20;;;;;;5011224;28;20033;-64
2023/06/19 02:41:50;;;;;;;8.93;6.63;;;20.50;60.80;;;;;;5019844;28;20159;-65
2023/06/19 02:44:15;;;;;;;8.05;6.53;;;20.50;61.40;;;;;;5007912;28;20172;-69
2023/06/19 02:46:41;;;;;;;8.27;6.57;;;20.50;61.10;;;;;;5004504;28;20141;-65
2023/06/19 02:49:06;;;;;;;9.38;7.20;;;20.50;61.00;;;;;;5020805;28;20388;-65
2023/06/19 02:51:32;;;;;;;10.00;6.50;;;20.50;61.20;;;;;;5014882;28;20032;-65
2023/06/19 02:53:57;;;;;;;8.85;6.45;;;20.40;61.50;;;;;;5018520;28;20038;-65
2023/06/19 02:56:24;;;;;;;8.52;6.45;;;20.40;60.60;;;;;;5008209;28;20477;-66
2023/06/19 02:58:49;;;;;;;8.80;6.88;;;20.50;60.60;;;;;;5018233;28;20076;-64
2023/06/19 03:01:15;;;;;;;10.15;6.68;;;20.50;60.30;;;;;;5008281;28;20057;-66
2023/06/19 03:03:40;;;;;;;8.70;6.57;;;20.50;60.70;;;;;;5009506;28;20037;-65
2023/06/19 03:06:07;;;;;;;8.77;6.97;;;20.50;60.30;;;;;;5007405;28;20065;-67
2023/06/19 03:08:34;;;;;;;11.02;7.63;;;20.50;60.90;;;;;;5008618;28;20025;-65
2023/06/19 03:11:00;;;;;;;9.93;6.78;;;20.50;60.50;;;;;;5006527;28;20393;-65
2023/06/19 03:13:25;;;;;;;10.48;6.93;;;20.50;60.50;;;;;;5017730;28;20030;-64
2023/06/19 03:15:51;;;;;;;8.55;6.72;;;20.50;61.20;;;;;;5016364;28;20533;-64
2023/06/19 03:18:16;;;;;;;8.43;6.68;;;20.50;61.40;;;;;;5008606;28;20053;-65
2023/06/19 03:20:41;;;;;;;9.98;7.18;;;20.50;60.60;;;;;;5013696;28;20022;-65
2023/06/19 03:23:07;;;;;;;9.05;6.57;;;20.40;60.50;;;;;;5004320;28;20114;-64
2023/06/19 03:25:34;;;;;;;9.43;6.95;;;20.40;61.60;;;;;;5003229;28;20029;-65
2023/06/19 03:28:01;;;;;;;9.70;6.78;;;20.50;61.00;;;;;;5001399;28;20077;-65
2023/06/19 03:30:27;;;;;;;9.85;7.05;;;20.40;61.20;;;;;;5004216;28;20030;-65
2023/06/19 03:32:53;;;;;;;9.50;6.70;;;20.50;61.00;;;;;;5006293;28;20022;-64
2023/06/19 03:35:18;;;;;;;9.00;6.90;;;20.40;60.40;;;;;;5005750;28;20057;-65
2023/06/19 03:37:44;;;;;;;8.10;6.57;;;20.40;60.60;;;;;;5006263;28;20040;-65
2023/06/19 03:40:13;;;;;;;8.95;6.57;;;20.40;61.10;;;;;;5004898;28;20021;-64
2023/06/19 03:42:41;;;;;;;9.57;7.05;;;20.40;61.00;;;;;;5003155;28;20322;-64
2023/06/19 03:45:07;;;;;;;8.70;6.93;;;20.40;61.30;;;;;;5005989;28;20503;-65
2023/06/19 03:47:33;;;;;;;10.63;6.95;;;20.40;60.80;;;;;;5005318;28;20215;-65
2023/06/19 03:49:58;;;;;;;9.57;6.60;;;20.40;61.30;;;;;;5004016;28;20053;-65
2023/06/19 03:52:24;;;;;;;8.88;6.38;;;20.40;60.60;;;;;;5005102;28;20021;-67
2023/06/19 03:54:49;;;;;;;8.13;6.50;;;20.40;62.00;;;;;;5004070;28;20550;-65
2023/06/19 03:57:15;;;;;;;8.90;6.90;;;20.30;61.50;;;;;;5009385;28;20029;-64
2023/06/19 03:59:40;;;;;;;8.93;6.70;;;20.40;61.20;;;;;;5011076;28;20342;-64
2023/06/19 04:02:06;;;;;;;12.32;6.90;;;20.30;62.30;;;;;;5001382;28;20030;-65
2023/06/19 04:04:31;;;;;;;8.30;6.47;;;20.40;62.20;;;;;;5008743;28;20073;-64
2023/06/19 04:06:58;;;;;;;8.85;6.45;;;20.40;61.20;;;;;;5004486;28;20334;-68
2023/06/19 04:09:24;;;;;;;10.73;6.70;;;20.30;62.90;;;;;;5006041;28;20403;-65
2023/06/19 04:11:50;;;;;;;7.95;6.43;;;20.30;62.00;;;;;;5002353;28;20172;-65
2023/06/19 04:14:15;;;;;;;9.00;6.97;;;20.30;61.80;;;;;;5001227;28;20125;-65
2023/06/19 04:16:41;;;;;;;9.40;6.70;;;20.30;62.10;;;;;;4994398;28;20042;-65
2023/06/19 04:19:06;;;;;;;11.50;6.93;;;20.40;61.60;;;;;;4996696;28;20036;-65
2023/06/19 04:21:31;;;;;;;8.27;6.32;;;20.40;61.20;;;;;;5004509;28;20029;-65
2023/06/19 04:23:57;;;;;;;9.18;6.65;;;20.50;61.90;;;;;;5013541;28;20407;-64
2023/06/19 04:26:24;;;;;;;11.77;6.88;;;20.50;61.90;;;;;;4996064;28;20041;-64
2023/06/19 04:28:49;;;;;;;8.68;6.18;;;20.40;61.00;;;;;;5002319;28;20062;-63
2023/06/19 04:31:17;;;;;;;10.60;7.38;;;20.50;61.90;;;;;;5001707;28;20439;-64
2023/06/19 04:33:43;;;;;;;9.32;6.70;;;20.40;62.20;;;;;;5004558;28;20103;-64
2023/06/19 04:36:09;;;;;;;7.97;6.65;;;20.40;61.50;;;;;;5004153;28;20030;-64
2023/06/19 04:38:35;;;;;;;11.45;7.63;;;20.50;62.80;;;;;;5002048;28;20100;-64
2023/06/19 04:41:00;;;;;;;8.02;6.28;;;20.40;62.30;;;;;;5009816;28;20112;-64
2023/06/19 04:43:26;;;;;;;8.88;7.22;;;20.40;63.10;;;;;;5003996;28;20111;-64
2023/06/19 04:45:51;;;;;;;9.77;6.88;;;20.40;63.00;;;;;;4996072;28;20058;-65
2023/06/19 04:48:17;;;;;;;8.98;7.00;;;20.40;63.70;;;;;;4996783;28;20371;-64
2023/06/19 04:50:42;;;;;;;8.43;6.70;;;20.40;63.00;;;;;;5010433;28;20056;-64
2023/06/19 04:53:08;;;;;;;11.77;6.30;;;20.50;62.50;;;;;;5003859;28;20025;-64
2023/06/19 04:55:33;;;;;;;9.65;6.60;;;20.50;61.80;;;;;;5003555;28;20041;-64
2023/06/19 04:57:59;;;;;;;8.18;6.57;;;20.50;62.90;;;;;;5006791;28;20030;-65
2023/06/19 05:00:25;;;;;;;9.23;6.57;;;20.50;62.60;;;;;;5003642;28;20051;-64
2023/06/19 05:02:50;;;;;;;8.23;7.03;;;20.50;62.10;;;;;;5011395;28;20490;-64
2023/06/19 05:05:17;;;;;;;9.23;6.55;;;20.60;62.00;;;;;;4996064;28;20029;-68
2023/06/19 05:07:42;;;;;;;8.95;6.70;;;20.50;62.90;;;;;;5008960;28;20118;-64
2023/06/19 05:10:08;;;;;;;11.13;6.32;;;20.50;62.10;;;;;;5008046;28;20092;-65
2023/06/19 05:12:35;;;;;;;8.40;6.22;;;20.50;62.30;;;;;;5001244;28;20505;-64
2023/06/19 05:15:01;;;;;;;11.27;6.68;;;20.50;62.50;;;;;;5005365;28;20055;-64
2023/06/19 05:17:26;;;;;;;7.75;6.72;;;20.50;63.40;;;;;;5005739;28;20105;-65
2023/06/19 05:19:52;;;;;;;9.30;7.15;;;20.50;64.20;;;;;;5015544;28;20026;-64
2023/06/19 05:22:21;;;;;;;9.98;7.05;;;20.50;64.70;;;;;;5001518;28;20450;-65
2023/06/19 05:24:47;;;;;;;9.43;7.13;;;20.30;65.40;;;;;;4999295;28;20460;-65
2023/06/19 05:27:12;;;;;;;8.30;7.07;;;20.30;64.80;;;;;;4997691;28;20121;-63
2023/06/19 05:29:38;;;;;;;9.88;7.43;;;20.40;65.10;;;;;;5011333;28;20040;-64
2023/06/19 05:32:04;;;;;;;9.40;7.10;;;20.30;65.00;;;;;;5006650;28;20307;-65
2023/06/19 05:34:29;;;;;;;9.55;7.20;;;20.30;65.70;;;;;;5001528;28;20057;-70
2023/06/19 05:36:55;;;;;;;8.23;7.03;;;20.30;65.40;;;;;;5000103;28;20726;-66
2023/06/19 05:39:20;;;;;;;9.90;7.22;;;20.20;67.40;;;;;;4990140;28;20490;-64
2023/06/19 05:41:46;;;;;;;9.63;6.90;;;20.30;68.50;;;;;;5004988;28;20057;-65
2023/06/19 05:44:16;;;;;;;9.43;7.38;;;20.20;69.70;;;;;;5000423;28;20030;-65
2023/06/19 05:46:42;;;;;;;9.57;7.45;;;20.30;67.70;;;;;;4997445;28;20045;-64
2023/06/19 05:49:08;;;;;;;11.90;7.40;;;20.20;66.20;;;;;;5000443;28;20042;-65
2023/06/19 05:51:33;;;;;;;9.80;7.65;;;20.20;67.60;;;;;;5007095;28;20410;-64
2023/06/19 05:54:03;;;;;;;9.32;7.00;;;20.10;67.70;;;;;;4997814;28;20493;-64
2023/06/19 05:56:30;;;;;;;9.45;7.95;;;20.10;69.90;;;;;;5004200;28;20095;-66
2023/06/19 05:58:56;;;;;;;9.90;7.70;;;20.00;71.90;;;;;;4996712;28;20048;-69
2023/06/19 06:01:21;;;;;;;10.48;7.10;;;19.80;70.90;;;;;;4999146;28;20029;-64
2023/06/19 06:03:46;;;;;;;9.77;7.38;;;19.80;71.60;;;;;;5000003;28;20141;-65
2023/06/19 06:06:12;;;;;;;11.93;7.53;;;19.60;71.00;;;;;;5009524;28;20620;-65
2023/06/19 06:08:37;;;;;;;9.40;7.10;;;19.70;72.00;;;;;;5004589;28;20029;-65
2023/06/19 06:11:03;;;;;;;9.13;7.63;;;19.70;70.50;;;;;;5003487;28;20083;-64
2023/06/19 06:13:28;;;;;;;10.45;6.43;;;19.80;70.00;;;;;;4997090;28;20045;-65
2023/06/19 06:15:54;;;;;;;8.55;6.88;;;19.90;69.00;;;;;;5011325;28;20469;-64
2023/06/19 06:18:19;;;;;;;9.88;7.85;;;20.00;68.20;;;;;;5007460;28;20151;-64
2023/06/19 06:20:45;;;;;;;9.68;7.45;;;20.10;67.90;;;;;;5004912;28;20040;-64
2023/06/19 06:23:10;;;;;;;10.57;7.47;;;20.20;69.60;;;;;;5014834;28;20037;-65
2023/06/19 06:25:36;;;;;;;11.20;6.90;;;20.20;68.00;;;;;;5007837;28;20104;-64
2023/06/19 06:28:01;;;;;;;9.65;7.00;;;20.30;68.60;;;;;;4992296;28;20050;-63
2023/06/19 06:30:30;;;;;;;7.93;7.00;;;20.50;67.80;;;;;;5005444;28;20033;-62
2023/06/19 06:32:55;;;;;;;10.15;7.50;;;20.50;67.70;;;;;;5001699;28;20026;-63
2023/06/19 06:35:21;;;;;;;12.60;7.25;;;20.50;68.60;;;;;;5011254;28;20088;-62
2023/06/19 06:37:49;;;;;;;7.82;7.03;;;20.50;67.40;;;;;;5006785;28;20021;-62
2023/06/19 06:40:14;;;;;;;10.43;7.43;;;20.50;67.00;;;;;;5014280;28;20080;-64
2023/06/19 06:42:40;;;;;;;10.77;7.32;;;20.70;67.40;;;;;;5014380;28;20108;-65
2023/06/19 06:45:07;;;;;;;9.07;7.00;;;20.60;67.40;;;;;;5004220;28;20064;-65
2023/06/19 06:47:32;;;;;;;10.30;7.78;;;20.70;67.40;;;;;;5005571;28;20444;-62
2023/06/19 06:49:58;;;;;;;10.50;7.32;;;20.70;66.60;;;;;;5008452;28;20018;-64
2023/06/19 06:52:24;;;;;;;10.95;6.95;;;20.80;67.10;;;;;;5010568;28;20543;-63
2023/06/19 06:54:49;;;;;;;8.70;7.13;;;20.90;67.10;;;;;;5003440;28;20491;-63
2023/06/19 06:57:15;;;;;;;9.25;7.20;;;21.00;66.70;;;;;;5014297;28;20062;-62
2023/06/19 06:59:40;;;;;;;11.65;7.50;;;21.00;67.50;;;;;;5010275;28;20050;-62
2023/06/19 07:02:06;;;;;;;11.02;8.25;;;21.00;67.40;;;;;;5003205;28;20090;-63
2023/06/19 07:04:32;;;;;;;9.98;7.40;;;21.10;66.00;;;;;;5006753;28;20104;-62
2023/06/19 07:06:58;;;;;;;8.98;6.93;;;21.30;66.40;;;;;;5013437;28;20033;-65
2023/06/19 07:09:23;;;;;;;11.38;7.10;;;21.50;66.80;;;;;;5007718;28;20037;-62
2023/06/19 07:11:49;;;;;;;9.27;7.22;;;21.60;65.40;;;;;;5009541;28;20314;-63
2023/06/19 07:14:17;;;;;;;9.98;7.43;;;22.20;65.40;;;;;;5014184;28;20117;-62
2023/06/19 07:16:44;;;;;;;10.57;6.88;;;22.30;64.90;;;;;;5010006;28;20437;-62
2023/06/19 07:19:09;;;;;;;11.98;7.30;;;22.00;64.30;;;;;;5010634;28;20040;-63
2023/06/19 07:21:35;;;;;;;8.77;6.85;;;21.90;64.40;;;;;;5009817;28;20033;-63
2023/06/19 07:24:01;;;;;;;9.75;6.85;;;22.00;65.60;;;;;;5009256;28;20092;-62
2023/06/19 07:26:26;;;;;;;10.25;7.32;;;21.90;66.00;;;;;;5009216;28;20321;-62
2023/06/19 07:28:52;;;;;;;9.90;6.75;;;22.00;66.50;;;;;;5007747;28;20057;-62
2023/06/19 07:31:17;;;;;;;8.55;7.18;;;22.00;66.40;;;;;;5011052;28;20088;-63
2023/06/19 07:33:43;;;;;;;8.15;6.53;;;22.30;65.20;;;;;;5009075;28;20034;-62
2023/06/19 07:36:13;;;;;;;10.95;7.40;;;22.30;65.00;;;;;;5009453;28;20045;-63
2023/06/19 07:38:39;;;;;;;12.63;7.65;;;22.40;65.60;;;;;;5005396;28;20436;-63
2023/06/19 07:41:07;;;;;;;12.00;7.20;;;22.30;65.50;;;;;;5009070;28;20030;-63
2023/06/19 07:43:32;;;;;;;10.38;7.25;;;22.40;65.70;;;;;;4999417;28;20029;-64
2023/06/19 07:45:59;;;;;;;8.93;7.00;;;22.50;66.10;;;;;;5017885;28;20084;-63
2023/06/19 07:48:24;;;;;;;8.25;6.78;;;22.50;65.40;;;;;;5015200;28;20623;-63
2023/06/19 07:50:50;;;;;;;9.32;7.30;;;22.80;65.70;;;;;;5008572;28;20109;-63
2023/06/19 07:53:15;;;;;;;7.82;6.68;;;22.90;64.00;;;;;;4996420;28;20455;-65
2023/06/19 07:55:41;;;;;;;8.35;6.72;;;23.40;64.00;;;;;;5001761;28;20092;-63
2023/06/19 07:58:07;;;;;;;7.05;5.85;;;23.80;63.20;;;;;;5009438;28;20045;-63
2023/06/19 08:00:32;;;;;;;10.68;7.13;;;24.60;62.20;;;;;;5008037;28;20426;-63
2023/06/19 08:02:58;;;;;;;8.02;6.18;;;24.80;59.40;;;;;;5008861;28;20427;-63
2023/06/19 08:05:23;;;;;;;7.75;6.35;;;25.00;61.20;;;;;;5009758;28;20076;-63
2023/06/19 08:07:49;;;;;;;8.27;6.50;;;25.00;60.90;;;;;;5007056;28;20046;-63
2023/06/19 08:10:14;;;;;;;8.45;6.43;;;25.00;59.70;;;;;;5009047;28;20034;-63
2023/06/19 08:12:42;;;;;;;8.38;6.60;;;24.40;60.60;;;;;;4998394;28;20409;-63
2023/06/19 08:15:08;;;;;;;10.25;6.55;;;24.60;62.10;;;;;;5006843;28;20053;-65
2023/06/19 08:17:34;;;;;;;7.32;6.30;;;24.90;60.80;;;;;;5005696;28;20449;-63
2023/06/19 08:20:00;;;;;;;7.40;5.68;;;24.80;60.30;;;;;;5003751;28;20066;-63
2023/06/19 08:22:25;;;;;;;8.25;6.35;;;25.00;59.00;;;;;;5008880;28;20137;-65
2023/06/19 08:24:51;;;;;;;8.18;6.38;;;25.20;59.30;;;;;;5008168;28;20497;-64
2023/06/19 08:27:16;;;;;;;8.27;5.90;;;25.80;57.30;;;;;;5005250;28;20113;-64
2023/06/19 08:29:43;;;;;;;9.15;6.30;;;26.50;56.90;;;;;;5005702;28;20022;-63
2023/06/19 08:32:09;;;;;;;9.55;6.35;;;26.60;55.60;;;;;;5012114;28;20018;-63
2023/06/19 08:34:35;;;;;;;8.57;5.80;;;26.50;53.20;;;;;;5006938;28;20066;-64
2023/06/19 08:37:00;;;;;;;9.75;5.93;;;26.50;55.40;;;;;;5006358;28;20389;-68
2023/06/19 08:39:26;;;;;;;6.53;5.70;;;26.60;54.30;;;;;;5015505;28;20034;-64
2023/06/19 08:41:53;;;;;;;7.85;6.18;;;26.40;54.50;;;;;;5009031;28;20057;-64
2023/06/19 08:44:18;;;;;;;6.65;5.47;;;26.40;54.70;;;;;;5004093;28;20114;-63
2023/06/19 08:46:44;;;;;;;10.18;6.53;;;26.40;54.90;;;;;;5005399;28;20136;-63
2023/06/19 08:49:12;;;;;;;7.95;6.38;;;26.70;54.80;;;;;;5007869;28;20034;-63
2023/06/19 08:51:38;;;;;;;8.95;5.72;;;26.50;52.40;;;;;;5006158;28;20044;-63
2023/06/19 08:54:06;;;;;;;8.30;6.53;;;26.90;53.90;;;;;;5003448;28;20049;-63
2023/06/19 08:56:35;;;;;;;9.57;6.22;;;27.40;52.50;;;;;;5013004;28;20072;-64
2023/06/19 08:59:14;;;;;;;9.88;6.00;;;27.30;51.90;;;;;;5007665;28;20041;-64
2023/06/19 09:01:51;;;;;;;7.43;5.45;;;27.50;53.10;;;;;;5006396;28;20369;-64
2023/06/19 09:04:17;;;;;;;8.82;6.15;;;27.30;53.60;;;;;;5013294;28;20395;-65
2023/06/19 09:06:51;;;;;;;8.50;6.40;;;27.50;52.00;;;;;;5013079;28;20041;-64
2023/06/19 09:09:20;;;;;;;8.15;6.15;;;27.00;52.20;;;;;;5000169;28;20075;-63
2023/06/19 09:11:59;;;;;;;9.82;6.30;;;27.00;53.30;;;;;;5004305;28;20125;-63
2023/06/19 09:14:37;;;;;;;9.80;6.25;;;27.10;54.10;;;;;;5004312;28;20098;-63
2023/06/19 09:17:04;;;;;;;9.77;6.50;;;27.20;54.50;;;;;;5008136;28;20038;-64
2023/06/19 09:19:30;;;;;;;10.50;7.05;;;27.10;53.80;;;;;;5009618;28;20034;-63
2023/06/19 09:22:07;;;;;;;8.50;6.13;;;27.40;54.10;;;;;;5010917;28;20038;-64
2023/06/19 09:24:41;;;;;;;8.57;6.22;;;27.30;52.40;;;;;;5003623;28;20378;-63
2023/06/19 09:27:13;;;;;;;11.80;6.50;;;27.20;55.00;;;;;;5010221;28;20026;-64
2023/06/19 09:29:44;;;;;;;7.55;5.97;;;27.00;54.20;;;;;;5008597;28;20027;-67
2023/06/19 09:32:28;;;;;;;8.55;6.00;;;27.30;53.40;;;;;;5009176;28;20025;-63
2023/06/19 09:34:55;;;;;;;8.88;5.60;;;27.00;51.10;;;;;;5002983;28;20085;-63
2023/06/19 09:37:27;;;;;;;7.85;5.57;;;27.00;52.20;;;;;;5001620;28;20104;-63
2023/06/19 09:39:57;;;;;;;7.43;5.13;;;27.20;50.70;;;;;;4997771;28;20133;-64
2023/06/19 09:42:27;;;;;;;;;;;27.10;49.80;;;;;;4999526;28;20124;-64
2023/06/19 09:44:59;;;;;;;7.88;5.90;;;27.40;51.50;;;;;;5004121;28;20309;-65
2023/06/19 09:47:28;;;;;;;8.25;6.15;;;27.40;49.60;;;;;;4999580;28;20062;-63
2023/06/19 09:49:55;;;;;;;8.02;6.05;;;27.20;49.50;;;;;;5016038;28;20030;-64
2023/06/19 09:52:22;;;;;;;7.65;5.30;;;27.40;49.20;;;;;;5003230;28;20038;-65
2023/06/19 09:54:50;;;;;;;7.53;5.25;;;27.70;49.90;;;;;;5005233;28;20022;-64
2023/06/19 09:57:15;;;;;;;6.93;5.30;;;27.90;49.00;;;;;;4993331;28;20036;-64
2023/06/19 09:59:42;;;;;;;7.18;5.68;;;27.90;47.90;;;;;;5006327;28;20096;-63
2023/06/19 10:02:10;;;;;;;6.88;5.40;;;28.20;48.30;;;;;;5007762;28;20044;-64
2023/06/19 10:04:46;;;;;;;7.03;5.03;;;28.90;47.80;;;;;;5005404;28;20040;-63
2023/06/19 10:07:22;;;;;;;7.82;4.82;;;29.00;45.60;;;;;;5005356;28;20406;-63
2023/06/19 10:09:59;;;;;;;8.68;4.90;;;29.20;46.70;;;;;;5018041;28;20421;-64
2023/06/19 10:12:38;;;;;;;7.63;5.28;;;29.10;46.20;;;;;;5003338;28;20061;-64
2023/06/19 10:15:23;;;;;;;7.97;5.13;;;29.40;45.10;;;;;;5013104;28;20057;-68
2023/06/19 10:17:51;;;;;;;8.13;5.78;;;30.00;45.60;;;;;;5004226;28;20029;-66
2023/06/19 10:20:21;;;;;;;5.82;4.57;;;30.00;43.90;;;;;;5005502;28;20034;-69
2023/06/19 10:23:23;;;;;;;7.97;5.05;;;29.90;44.80;;;;;;5003327;28;20163;-64
2023/06/19 10:25:59;;;;;;;5.85;4.38;;;30.50;45.00;;;;;;5012061;28;20104;-67
2023/06/19 10:28:31;;;;;;;7.72;4.47;;;30.00;44.60;;;;;;5007654;28;20041;-63
2023/06/19 10:31:07;;;;;;;5.82;4.20;;;30.10;45.20;;;;;;5014072;28;20078;-64
2023/06/19 10:33:36;;;;;;;7.45;4.55;;;29.70;46.20;;;;;;5007113;28;20407;-64
2023/06/19 10:36:17;;;;;;;7.75;4.00;;;29.40;45.90;;;;;;5022798;28;20395;-64
2023/06/19 10:38:47;;;;;;;5.68;4.20;;;29.00;46.40;;;;;;5007141;28;20082;-64
2023/06/19 10:41:25;;;;;;;5.80;4.10;;;28.60;48.00;;;;;;5006477;28;20034;-65
2023/06/19 10:43:58;;;;;;;7.68;4.50;;;28.90;47.90;;;;;;4999546;28;20037;-66
2023/06/19 10:46:29;;;;;;;8.38;4.55;;;28.60;48.00;;;;;;4994980;28;20096;-63
2023/06/19 10:49:00;;;;;;;7.18;4.65;;;29.70;47.80;;;;;;4993643;28;20069;-64
2023/06/19 10:51:36;;;;;;;13.45;5.28;;;29.90;46.40;;;;;;4999199;28;20734;-63
2023/06/19 10:54:02;;;;;;;8.32;4.88;;;29.90;49.00;;;;;;5000102;28;20636;-64
2023/06/19 10:56:27;;;;;;;8.88;5.10;;;29.50;48.20;;;;;;5002778;28;20026;-63
2023/06/19 10:59:05;;;;;;;8.90;5.25;;;29.00;48.60;;;;;;5002331;28;20038;-65
2023/06/19 11:01:39;;;;;;;6.50;5.00;;;29.10;48.00;;;;;;5002399;28;20048;-63
2023/06/19 11:04:09;;;;;;;5.55;4.40;;;29.40;48.90;;;;;;5002845;28;20030;-64
2023/06/19 11:06:36;;;;;;;7.68;4.68;;;29.90;48.10;;;;;;5010576;28;20038;-63
2023/06/19 11:09:04;;;;;;;6.30;4.60;;;29.80;48.20;;;;;;5001884;28;20040;-63
2023/06/19 11:11:44;;;;;;;6.18;4.75;;;29.90;48.00;;;;;;5010293;28;20105;-64
2023/06/19 11:14:14;;;;;;;9.02;5.50;;;30.00;48.20;;;;;;5004978;28;20034;-64
2023/06/19 11:16:45;;;;;;;7.38;5.18;;;29.50;48.90;;;;;;5011177;28;20449;-65
2023/06/19 11:19:30;;;;;;;7.85;4.68;;;30.00;49.40;;;;;;5004276;28;20100;-65
2023/06/19 11:21:57;;;;;;;5.88;4.93;;;30.20;46.30;;;;;;5012730;28;20041;-67
2023/06/19 11:24:23;;;;;;;5.93;4.82;;;30.40;47.30;;;;;;5001950;28;20139;-65
2023/06/19 11:26:50;;;;;;;5.40;4.18;;;30.60;46.40;;;;;;5010449;28;20037;-64
2023/06/19 11:29:22;;;;;;;5.70;4.70;;;30.10;47.90;;;;;;5007047;28;20045;-65
2023/06/19 11:31:49;;;;;;;6.13;4.88;;;29.70;47.50;;;;;;5003447;28;20062;-64
2023/06/19 11:34:15;;;;;;;9.40;5.03;;;29.40;48.90;;;;;;5005252;28;20397;-63
2023/06/19 11:36:42;;;;;;;9.63;5.35;;;29.50;49.20;;;;;;4998389;28;20119;-65
2023/06/19 11:39:15;;;;;;;7.28;4.82;;;29.10;49.80;;;;;;4999456;28;20063;-63
2023/06/19 11:41:41;;;;;;;7.95;5.40;;;28.80;50.80;;;;;;5010419;28;20041;-64
2023/06/19 11:44:10;;;;;;;9.85;4.80;;;28.40;51.80;;;;;;5004131;28;20022;-63
2023/06/19 11:46:36;;;;;;;8.90;4.60;;;28.40;51.80;;;;;;5010357;28;20040;-64
2023/06/19 11:49:19;;;;;;;5.80;4.00;;;28.40;52.10;;;;;;5006187;28;20038;-63
2023/06/19 11:51:45;;;;;;;5.30;3.90;;;29.00;51.00;;;;;;5009888;28;20074;-64
2023/06/19 11:54:12;;;;;;;5.97;2.95;;;29.30;49.60;;;;;;5000584;28;20382;-63
2023/06/19 11:56:39;;;;;;;4.22;3.00;;;29.20;50.30;;;;;;5005078;28;20021;-68
2023/06/19 11:59:05;;;;;;;4.93;3.47;;;29.30;50.30;;;;;;5005202;28;20052;-63
2023/06/19 12:01:34;;;;;;;4.32;2.95;;;29.20;49.20;;;;;;5010552;28;20406;-64
2023/06/19 12:04:01;;;;;;;8.07;3.40;;;28.90;50.50;;;;;;5012778;28;20042;-63
2023/06/19 12:06:27;;;;;;;6.20;3.33;;;28.70;51.40;;;;;;5008688;28;20121;-63
2023/06/19 12:08:52;;;;;;;4.88;3.08;;;29.00;51.80;;;;;;5000825;28;20465;-65
2023/06/19 12:11:18;;;;;;;4.28;3.05;;;28.50;51.30;;;;;;5005901;28;20050;-63
2023/06/19 12:13:43;;;;;;;4.57;2.95;;;28.50;51.40;;;;;;5005947;28;20033;-65
2023/06/19 12:16:13;;;;;;;6.13;2.65;;;29.30;50.20;;;;;;5002592;28;20170;-65
2023/06/19 12:18:38;;;;;;;4.20;2.85;;;29.20;49.70;;;;;;5006104;28;20163;-63
2023/06/19 12:21:04;;;;;;;6.20;3.00;;;28.40;51.60;;;;;;5010236;28;20101;-64
2023/06/19 12:23:30;;;;;;;4.78;2.38;;;28.60;51.30;;;;;;5001803;28;20034;-67
2023/06/19 12:25:56;;;;;;;6.20;2.40;;;28.90;49.80;;;;;;5001317;28;20035;-63
2023/06/19 12:28:21;;;;;;;3.42;2.22;;;29.30;50.20;;;;;;5001733;28;20451;-64
2023/06/19 12:30:51;;;;;;;3.00;2.28;;;29.50;49.70;;;;;;5010118;28;20111;-65
2023/06/19 12:33:23;;;;;;;6.70;2.38;;;29.10;49.30;;;;;;5008153;28;20382;-63
2023/06/19 12:35:49;;;;;;;6.88;2.35;;;28.80;50.30;;;;;;5017215;28;20429;-63
2023/06/19 12:38:14;;;;;;;3.67;2.42;;;29.30;49.90;;;;;;5001546;28;20040;-64
2023/06/19 12:40:40;;;;;;;3.63;2.40;;;30.10;47.80;;;;;;5013221;28;20444;-63
2023/06/19 12:43:06;;;;;;;5.43;2.00;;;29.90;47.80;;;;;;5002710;28;20034;-66
2023/06/19 12:45:31;;;;;;;4.25;1.90;;;30.10;49.00;;;;;;5006720;28;20308;-65